Las Cruces, NM

10:09 PM MDT on August 31, 2016 (GMT -0600)
APRSWXNET | | Change Station

Elev 3986 ft 32.38 °N, 106.80 °W | Updated 22 minutes ago

Clear
Clear
72 °F
Feels Like 74 °F
N
0
Wind Variable Wind from ESE
Gusts 0.0 mph

Today
High -- | Low -- °F
--% Chance of Precip.
Yesterday
High -- | Low -- °F
Precip. -- in
Pressure 30.20 in
Visibility 10.0 miles
Clouds Clear
Heat Index 74 °F
Dew Point 63 °F
Humidity 73%
Rainfall in
Snow Depth Not available.
6:41 AM 7:32 PM
Waning Crescent, 0% visible
METAR KLRU 010355Z AUTO 13005KT 10SM CLR 23/15 A3020 RMK AO2 T02300152
Pressure 30.20 in
Visibility 10.0 miles
Clouds Clear
Heat Index 74 °F
Dew Point 63 °F
Humidity 73%
Rainfall in
Snow Depth Not available.
6:41 AM 7:32 PM
Waning Crescent, 0% visible
METAR KLRU 010355Z AUTO 13005KT 10SM CLR 23/15 A3020 RMK AO2 T02300152

10-Day Weather Forecast

Almanac

Astronomy

Aug. 31, 2016 Rise Set
Actual Time
Civil Twilight
Nautical Twilight
Astronomical Twilight
Moon
Length of Visible Light
Length of Day
Tomorrow will be .
, % of the Moon is Illuminated

Today's Extremes

State Highs State Lows

Community

WunderPhotos

Upload Photos

1,936,293 photos uploaded!

WunderBlog® & News

Nearby

Air Quality

  Air Quality AQ Index Pollutant
Not available.

Snow Depth

Station Depth Elevation

Earthquake Activity

City Distance Mag. Time & Date
Minimum magnitude displayed is 2.5.

Coastal Water Temperatures

Place Temperature

Stations

Nearby Weather Stations

Station Location Temp. Windchill Dew Point Humidity Wind Precip. Elev Updated Type
                   

Watches & Warnings

There are currently no watches in effect.